createdAt,value
2023-05-23T00:02:47.775Z,17.44
2023-05-23T00:05:59.121Z,17.40
2023-05-23T00:08:45.374Z,17.35
2023-05-23T00:11:47.577Z,17.32
2023-05-23T00:14:45.677Z,17.30
2023-05-23T00:17:25.632Z,17.26
2023-05-23T00:20:00.307Z,17.24
2023-05-23T00:22:43.337Z,17.21
2023-05-23T00:26:11.850Z,17.22
2023-05-23T00:29:01.701Z,17.13
2023-05-23T00:31:32.200Z,17.16
2023-05-23T00:34:35.023Z,17.13
2023-05-23T00:41:50.579Z,17.04
2023-05-23T00:50:10.544Z,16.97
2023-05-23T00:52:45.403Z,16.91
2023-05-23T00:56:18.169Z,16.89
2023-05-23T00:58:58.561Z,16.90
2023-05-23T01:01:58.041Z,16.86
2023-05-23T01:04:39.200Z,16.85
2023-05-23T01:07:40.188Z,16.83
2023-05-23T01:10:50.562Z,16.83
2023-05-23T01:14:06.789Z,16.81
2023-05-23T01:17:31.575Z,16.79
2023-05-23T01:21:07.783Z,16.76
2023-05-23T01:24:49.766Z,16.73
2023-05-23T01:28:14.355Z,16.73
2023-05-23T01:31:41.359Z,16.73
2023-05-23T01:34:12.896Z,16.69
2023-05-23T01:36:52.722Z,16.68
2023-05-23T01:39:34.725Z,16.65
2023-05-23T01:42:14.059Z,16.65
2023-05-23T01:45:03.546Z,16.65
2023-05-23T01:49:58.610Z,16.59
2023-05-23T01:53:18.756Z,16.63
2023-05-23T01:55:57.734Z,16.62
2023-05-23T01:58:32.769Z,16.57
2023-05-23T02:01:38.755Z,16.50
2023-05-23T02:04:29.677Z,16.45
2023-05-23T02:07:26.018Z,16.43
2023-05-23T02:10:18.094Z,16.43
2023-05-23T02:13:30.380Z,16.42
2023-05-23T02:16:25.377Z,16.39
2023-05-23T02:24:33.458Z,16.39
2023-05-23T02:28:02.548Z,16.33
2023-05-23T02:30:37.288Z,16.28
2023-05-23T02:33:50.298Z,16.22
2023-05-23T02:37:05.758Z,16.31
2023-05-23T02:48:40.999Z,16.32
2023-05-23T02:51:34.823Z,16.33
2023-05-23T02:54:14.303Z,16.35
2023-05-23T02:57:14.637Z,16.37
2023-05-23T03:03:07.086Z,16.53
2023-05-23T03:05:53.414Z,16.53
2023-05-23T03:08:50.239Z,16.51
2023-05-23T03:12:53.943Z,16.51
2023-05-23T03:15:47.737Z,16.50
2023-05-23T03:18:29.648Z,16.60
2023-05-23T03:21:45.434Z,16.63
2023-05-23T03:25:23.877Z,16.66
2023-05-23T03:28:03.578Z,16.74
2023-05-23T03:30:42.222Z,16.78
2023-05-23T03:33:43.944Z,16.77
2023-05-23T03:36:35.253Z,16.76
2023-05-23T03:44:24.818Z,16.82
2023-05-23T03:47:03.729Z,16.88
2023-05-23T03:50:17.759Z,16.92
2023-05-23T03:53:46.337Z,16.98
2023-05-23T04:01:31.139Z,17.16
2023-05-23T04:05:17.444Z,17.29
2023-05-23T04:13:44.535Z,17.54
2023-05-23T04:16:54.381Z,17.70
2023-05-23T04:20:04.579Z,17.82
2023-05-23T04:40:00.624Z,18.60
2023-05-23T05:18:42.612Z,19.46
2023-05-23T05:22:04.372Z,19.51
2023-05-23T05:28:33.369Z,19.77
2023-05-23T05:31:15.598Z,19.83
2023-05-23T05:38:51.160Z,20.03
2023-05-23T05:42:07.165Z,19.91
2023-05-23T05:44:44.870Z,19.93
2023-05-23T05:47:36.112Z,19.99
2023-05-23T05:51:02.653Z,19.99
2023-05-23T05:54:12.726Z,19.95
2023-05-23T06:01:30.155Z,20.19
2023-05-23T06:04:49.907Z,20.34
2023-05-23T06:07:47.114Z,20.48
2023-05-23T06:15:29.170Z,20.47
2023-05-23T06:18:59.796Z,20.56
2023-05-23T06:21:47.809Z,20.53
2023-05-23T06:27:19.596Z,20.48
2023-05-23T06:30:18.742Z,20.61
2023-05-23T06:33:36.767Z,20.55
2023-05-23T06:36:35.340Z,20.69
2023-05-23T06:39:24.874Z,20.85
2023-05-23T06:42:01.240Z,20.93
2023-05-23T06:45:56.065Z,21.14
2023-05-23T06:56:56.754Z,20.94
2023-05-23T07:03:31.346Z,21.35
2023-05-23T07:07:30.098Z,21.54
2023-05-23T07:11:01.182Z,21.65
2023-05-23T07:13:56.399Z,21.64
2023-05-23T07:17:37.000Z,21.76
2023-05-23T07:21:37.984Z,21.90
2023-05-23T07:24:26.355Z,22.04
2023-05-23T07:27:32.198Z,22.08
2023-05-23T07:30:38.364Z,22.08
2023-05-23T07:34:13.225Z,22.05
2023-05-23T07:37:37.006Z,22.08
2023-05-23T07:41:12.726Z,22.29
2023-05-23T07:44:39.703Z,22.49
2023-05-23T07:47:49.616Z,22.70
2023-05-23T07:55:42.398Z,22.93
2023-05-23T08:03:29.049Z,22.87
2023-05-23T08:06:21.079Z,22.98
2023-05-23T08:10:05.904Z,23.15
2023-05-23T08:13:12.484Z,23.46
2023-05-23T08:17:06.556Z,23.67
2023-05-23T08:20:14.339Z,23.66
2023-05-23T08:23:18.334Z,23.57
2023-05-23T08:26:20.763Z,23.63
2023-05-23T08:29:51.638Z,23.65
2023-05-23T08:33:11.370Z,23.67
2023-05-23T08:36:49.855Z,23.71
2023-05-23T08:39:40.155Z,23.81
2023-05-23T08:44:43.451Z,24.13
2023-05-23T08:47:53.974Z,24.38
2023-05-23T08:51:52.341Z,24.54
2023-05-23T08:54:57.037Z,24.55
2023-05-23T09:12:48.647Z,24.60
2023-05-23T09:16:01.862Z,24.76
2023-05-23T09:19:27.305Z,24.89
2023-05-23T09:22:39.896Z,25.15
2023-05-23T09:25:50.376Z,25.37
2023-05-23T09:28:40.453Z,25.18
2023-05-23T09:31:34.434Z,25.01
2023-05-23T09:39:32.619Z,24.60
2023-05-23T09:42:55.463Z,24.44
2023-05-23T09:51:13.273Z,24.14
2023-05-23T09:54:35.053Z,24.02
2023-05-23T09:57:37.916Z,24.17
2023-05-23T10:09:56.904Z,24.36
2023-05-23T10:49:57.526Z,24.80
2023-05-23T10:53:01.155Z,25.02
2023-05-23T11:04:50.338Z,25.66
2023-05-23T11:08:47.056Z,25.85
2023-05-23T11:12:43.593Z,26.17
2023-05-23T11:20:28.488Z,26.67
2023-05-23T11:23:14.920Z,26.69
2023-05-23T11:26:55.703Z,26.73
2023-05-23T11:38:45.769Z,26.50
2023-05-23T11:41:53.039Z,26.53
2023-05-23T11:48:35.928Z,26.73
2023-05-23T11:52:24.432Z,26.75
2023-05-23T11:55:16.403Z,26.89
2023-05-23T11:58:07.168Z,26.85
2023-05-23T12:02:11.572Z,26.80
2023-05-23T12:06:14.228Z,26.58
2023-05-23T12:13:55.641Z,26.42
2023-05-23T12:21:17.135Z,26.18
2023-05-23T12:24:05.034Z,26.28
2023-05-23T12:27:26.483Z,26.22
2023-05-23T12:30:25.186Z,26.07
2023-05-23T12:33:53.649Z,25.98
2023-05-23T12:41:16.623Z,25.80
2023-05-23T12:44:17.470Z,25.89
2023-05-23T12:47:15.170Z,26.09
2023-05-23T12:50:40.404Z,26.34
2023-05-23T13:02:46.887Z,26.50
2023-05-23T13:09:46.420Z,26.84
2023-05-23T14:07:26.843Z,28.99
2023-05-23T14:10:51.645Z,29.12
2023-05-23T14:14:12.045Z,28.73
2023-05-23T14:17:29.750Z,28.08
2023-05-23T14:20:37.055Z,27.61
2023-05-23T14:24:12.064Z,27.25
2023-05-23T14:32:35.447Z,26.60
2023-05-23T14:35:25.304Z,26.49
2023-05-23T14:38:25.604Z,26.39
2023-05-23T14:46:58.691Z,25.86
2023-05-23T14:50:21.265Z,25.70
2023-05-23T14:54:04.172Z,25.62
2023-05-23T14:57:15.184Z,25.40
2023-05-23T15:00:08.846Z,25.21
2023-05-23T15:04:10.639Z,25.08
2023-05-23T15:16:38.419Z,24.77
2023-05-23T15:24:56.654Z,24.99
2023-05-23T15:28:30.625Z,25.28
2023-05-23T15:35:48.709Z,26.00
2023-05-23T15:43:04.926Z,26.87
2023-05-23T15:45:40.196Z,27.02
2023-05-23T15:48:38.479Z,27.14
2023-05-23T15:52:18.773Z,27.31
2023-05-23T15:59:25.060Z,27.59
2023-05-23T16:02:43.638Z,27.51
2023-05-23T16:05:19.995Z,27.45
2023-05-23T16:11:57.359Z,27.28
2023-05-23T16:14:26.614Z,27.19
2023-05-23T16:16:56.634Z,27.13
2023-05-23T16:19:42.455Z,27.02
2023-05-23T16:26:57.075Z,26.76
2023-05-23T16:34:08.195Z,26.44
2023-05-23T16:36:37.097Z,26.10
2023-05-23T16:39:04.522Z,25.78
2023-05-23T16:41:34.111Z,25.51
2023-05-23T16:44:01.332Z,25.23
2023-05-23T16:46:30.166Z,24.99
2023-05-23T16:48:59.207Z,24.87
2023-05-23T16:51:32.956Z,24.82
2023-05-23T16:54:01.640Z,24.84
2023-05-23T16:56:30.798Z,24.96
2023-05-23T16:58:58.204Z,25.14
2023-05-23T17:01:29.366Z,25.38
2023-05-23T17:03:58.444Z,25.42
2023-05-23T17:06:31.254Z,25.29
2023-05-23T17:08:59.062Z,25.23
2023-05-23T17:11:27.185Z,25.11
2023-05-23T17:18:09.332Z,24.52
2023-05-23T17:21:36.529Z,24.14
2023-05-23T17:24:19.357Z,23.96
2023-05-23T17:27:12.115Z,23.88
2023-05-23T17:34:17.574Z,23.62
2023-05-23T17:45:43.379Z,23.30
2023-05-23T17:48:48.031Z,23.20
2023-05-23T18:00:35.844Z,22.90
2023-05-23T18:04:41.992Z,22.83
2023-05-23T18:19:04.973Z,22.50
2023-05-23T18:31:18.020Z,22.31
2023-05-23T18:34:43.740Z,22.28
2023-05-23T18:57:37.086Z,21.99
2023-05-23T19:24:26.944Z,21.68
2023-05-23T19:48:42.066Z,21.43
2023-05-23T20:01:31.037Z,21.08
2023-05-23T20:28:52.680Z,20.89
2023-05-23T20:36:35.251Z,20.75
2023-05-23T20:40:00.566Z,20.70
2023-05-23T20:48:01.597Z,20.66
2023-05-23T20:51:33.811Z,20.63
2023-05-23T20:55:23.494Z,20.70
2023-05-23T21:04:21.075Z,20.71
2023-05-23T21:22:44.279Z,20.57
2023-05-23T21:40:31.878Z,20.46
2023-05-23T21:44:48.349Z,20.39
2023-05-23T21:47:46.307Z,20.20
2023-05-23T21:51:17.451Z,20.22
2023-05-23T21:53:59.785Z,20.18
2023-05-23T21:56:52.614Z,20.17
2023-05-23T22:00:15.067Z,20.17
2023-05-23T22:03:19.735Z,20.18
2023-05-23T22:06:44.371Z,20.17
2023-05-23T22:19:10.006Z,20.11
2023-05-23T22:21:39.190Z,20.00
2023-05-23T22:24:07.577Z,20.03
2023-05-23T22:26:39.555Z,20.01
2023-05-23T22:29:11.600Z,19.93
2023-05-23T22:31:44.273Z,19.96
2023-05-23T22:34:52.016Z,19.94
2023-05-23T22:37:43.234Z,19.96
2023-05-23T22:41:14.012Z,19.92
2023-05-23T22:43:58.003Z,19.88
2023-05-23T22:47:09.181Z,19.84
2023-05-23T22:49:45.318Z,19.83
2023-05-23T22:52:21.296Z,19.82
2023-05-23T23:01:00.202Z,19.88
2023-05-23T23:03:46.500Z,19.82
2023-05-23T23:07:24.744Z,19.77
2023-05-23T23:14:35.526Z,19.70
2023-05-23T23:17:53.500Z,19.58
2023-05-23T23:21:24.700Z,19.62
2023-05-23T23:24:15.320Z,19.56
2023-05-23T23:31:41.148Z,19.43
2023-05-23T23:34:35.393Z,19.40
2023-05-23T23:37:35.709Z,19.38
2023-05-23T23:41:15.403Z,19.37
2023-05-23T23:43:59.667Z,19.36
2023-05-23T23:46:54.623Z,19.30
2023-05-23T23:58:49.522Z,19.16
